createdAt,value
2019-02-14T00:00:05.042Z,2.03
2019-02-14T00:00:41.451Z,2.01
2019-02-14T00:01:15.954Z,2.05
2019-02-14T00:01:50.324Z,2.00
2019-02-14T00:02:25.229Z,1.99
2019-02-14T00:02:59.916Z,2.00
2019-02-14T00:03:34.262Z,1.97
2019-02-14T00:04:09.174Z,2.01
2019-02-14T00:04:43.547Z,1.99
2019-02-14T00:05:17.895Z,1.99
2019-02-14T00:05:52.256Z,2.00
2019-02-14T00:06:26.842Z,1.94
2019-02-14T00:07:01.200Z,1.97
2019-02-14T00:07:35.805Z,1.96
2019-02-14T00:08:10.475Z,1.96
2019-02-14T00:08:44.881Z,1.97
2019-02-14T00:09:19.232Z,1.96
2019-02-14T00:09:53.561Z,1.98
2019-02-14T00:10:28.155Z,2.03
2019-02-14T00:11:02.820Z,2.12
2019-02-14T00:11:37.154Z,2.10
2019-02-14T00:12:11.626Z,2.09
2019-02-14T00:12:46.330Z,2.13
2019-02-14T00:13:20.987Z,2.11
2019-02-14T00:13:55.333Z,2.11
2019-02-14T00:14:29.681Z,2.10
2019-02-14T00:15:04.282Z,2.08
2019-02-14T00:15:38.871Z,2.05
2019-02-14T00:16:13.582Z,2.01
2019-02-14T00:16:47.941Z,2.07
2019-02-14T00:17:22.294Z,2.04
2019-02-14T00:17:56.651Z,2.04
2019-02-14T00:18:31.001Z,2.02
2019-02-14T00:19:05.635Z,2.03
2019-02-14T00:19:40.227Z,2.13
2019-02-14T00:20:14.839Z,2.09
2019-02-14T00:20:49.174Z,2.08
2019-02-14T00:21:23.799Z,2.05
2019-02-14T00:21:58.149Z,2.02
2019-02-14T00:22:32.514Z,2.02
2019-02-14T00:23:06.890Z,2.03
2019-02-14T00:23:41.252Z,2.04
2019-02-14T00:24:15.748Z,2.10
2019-02-14T00:24:50.410Z,2.05
2019-02-14T00:25:24.751Z,2.04
2019-02-14T00:25:59.126Z,2.07
2019-02-14T00:26:33.749Z,2.03
2019-02-14T00:27:08.373Z,2.00
2019-02-14T00:27:42.742Z,1.94
2019-02-14T00:28:17.164Z,1.92
2019-02-14T00:28:51.528Z,1.96
2019-02-14T00:29:25.891Z,1.92
2019-02-14T00:30:00.325Z,1.92
2019-02-14T00:30:34.923Z,1.86
2019-02-14T00:31:09.556Z,1.91
2019-02-14T00:31:44.281Z,1.87
2019-02-14T00:32:18.889Z,1.87
2019-02-14T00:32:53.244Z,1.88
2019-02-14T00:33:27.694Z,1.86
2019-02-14T00:34:02.171Z,1.85
2019-02-14T00:34:36.781Z,1.83
2019-02-14T00:35:11.163Z,1.79
2019-02-14T00:35:45.534Z,1.82
2019-02-14T00:36:20.129Z,1.82
2019-02-14T00:36:54.578Z,1.82
2019-02-14T00:37:28.929Z,1.78
2019-02-14T00:38:03.273Z,1.77
2019-02-14T00:38:37.943Z,1.75
2019-02-14T00:39:12.305Z,1.78
2019-02-14T00:39:46.654Z,1.75
2019-02-14T00:40:21.362Z,1.76
2019-02-14T00:40:55.955Z,1.78
2019-02-14T00:41:31.146Z,1.79
2019-02-14T00:42:05.763Z,1.84
2019-02-14T00:42:40.384Z,1.80
2019-02-14T00:43:14.799Z,1.80
2019-02-14T00:43:49.159Z,1.82
2019-02-14T00:44:23.506Z,1.84
2019-02-14T00:44:57.872Z,1.88
2019-02-14T00:45:32.491Z,1.86
2019-02-14T00:46:06.844Z,1.85
2019-02-14T00:46:41.460Z,1.84
2019-02-14T00:47:15.838Z,1.87
2019-02-14T00:47:50.446Z,1.84
2019-02-14T00:48:25.087Z,1.89
2019-02-14T00:48:59.437Z,1.84
2019-02-14T00:49:33.783Z,1.84
2019-02-14T00:50:08.224Z,1.84
2019-02-14T00:50:42.833Z,1.81
2019-02-14T00:51:17.214Z,1.81
2019-02-14T00:51:51.567Z,1.80
2019-02-14T00:52:25.917Z,1.78
2019-02-14T00:53:00.824Z,1.75
2019-02-14T00:53:35.183Z,1.73
2019-02-14T00:54:09.532Z,1.75
2019-02-14T00:54:43.884Z,1.70
2019-02-14T00:55:18.265Z,1.71
2019-02-14T00:55:52.622Z,1.69
2019-02-14T00:56:26.988Z,1.69
2019-02-14T00:57:01.331Z,1.69
2019-02-14T00:57:35.760Z,1.68
2019-02-14T00:58:10.110Z,1.69
2019-02-14T00:58:44.742Z,1.66
2019-02-14T00:59:19.357Z,1.63
2019-02-14T00:59:53.959Z,1.67
2019-02-14T01:00:28.578Z,1.69
2019-02-14T01:01:02.920Z,1.67
2019-02-14T01:01:37.258Z,1.64
2019-02-14T01:02:11.609Z,1.66
2019-02-14T01:02:45.980Z,1.66
2019-02-14T01:03:20.341Z,1.65
2019-02-14T01:03:54.978Z,1.67
2019-02-14T01:04:29.571Z,1.70
2019-02-14T01:05:03.952Z,1.68
2019-02-14T01:05:38.330Z,1.65
2019-02-14T01:06:12.947Z,1.67
2019-02-14T01:06:47.290Z,1.63
2019-02-14T01:07:21.639Z,1.65
2019-02-14T01:07:56.253Z,1.63
2019-02-14T01:08:30.598Z,1.58
2019-02-14T01:09:05.990Z,1.57
2019-02-14T01:09:40.328Z,1.58
2019-02-14T01:10:14.943Z,1.58
2019-02-14T01:10:49.422Z,1.58
2019-02-14T01:11:23.771Z,1.65
2019-02-14T01:11:58.105Z,1.62
2019-02-14T01:12:32.454Z,1.59
2019-02-14T01:13:06.832Z,1.54
2019-02-14T01:13:41.435Z,1.61
2019-02-14T01:14:16.086Z,1.61
2019-02-14T01:14:50.525Z,1.55
2019-02-14T01:15:25.605Z,1.54
2019-02-14T01:16:00.016Z,1.55
2019-02-14T01:16:34.341Z,1.50
2019-02-14T01:17:08.683Z,1.52
2019-02-14T01:17:43.075Z,1.52
2019-02-14T01:18:17.775Z,1.49
2019-02-14T01:18:52.488Z,1.47
2019-02-14T01:19:26.864Z,1.48
2019-02-14T01:20:01.494Z,1.53
2019-02-14T01:20:36.182Z,1.55
2019-02-14T01:21:10.537Z,1.58
2019-02-14T01:21:44.907Z,1.61
2019-02-14T01:22:19.320Z,1.58
2019-02-14T01:22:53.686Z,1.55
2019-02-14T01:23:28.197Z,1.57
2019-02-14T01:24:02.570Z,1.55
2019-02-14T01:24:37.446Z,1.59
2019-02-14T01:25:11.840Z,1.62
2019-02-14T01:25:46.516Z,1.61
2019-02-14T01:26:20.906Z,1.59
2019-02-14T01:26:55.271Z,1.58
2019-02-14T01:27:29.654Z,1.55
2019-02-14T01:28:04.014Z,1.53
2019-02-14T01:28:38.364Z,1.52
2019-02-14T01:29:13.258Z,1.57
2019-02-14T01:29:47.928Z,1.60
2019-02-14T01:30:22.610Z,1.58
2019-02-14T01:30:57.299Z,1.56
2019-02-14T01:31:31.650Z,1.53
2019-02-14T01:32:06.260Z,1.49
2019-02-14T01:32:40.619Z,1.46
2019-02-14T01:33:14.997Z,1.42
2019-02-14T01:33:49.367Z,1.44
2019-02-14T01:34:24.318Z,1.40
2019-02-14T01:34:58.656Z,1.39
2019-02-14T01:35:32.999Z,1.42
2019-02-14T01:36:07.623Z,1.51
2019-02-14T01:36:42.266Z,1.46
2019-02-14T01:37:16.710Z,1.45
2019-02-14T01:37:51.309Z,1.41
2019-02-14T01:38:25.689Z,1.42
2019-02-14T01:39:00.024Z,1.40
2019-02-14T01:39:34.374Z,1.41
2019-02-14T01:40:08.873Z,1.40
2019-02-14T01:40:43.238Z,1.38
2019-02-14T01:41:17.724Z,1.46
2019-02-14T01:41:52.053Z,1.41
2019-02-14T01:42:26.505Z,1.43
2019-02-14T01:43:00.845Z,1.41
2019-02-14T01:43:35.450Z,1.42
2019-02-14T01:44:09.897Z,1.44
2019-02-14T01:44:44.552Z,1.46
2019-02-14T01:45:18.933Z,1.43
2019-02-14T01:45:53.420Z,1.41
2019-02-14T01:46:27.775Z,1.39
2019-02-14T01:47:02.124Z,1.39
2019-02-14T01:47:36.478Z,1.35
2019-02-14T01:48:11.456Z,1.36
2019-02-14T01:48:46.209Z,1.41
2019-02-14T01:49:20.578Z,1.38
2019-02-14T01:49:54.925Z,1.38
2019-02-14T01:50:31.784Z,1.41
2019-02-14T01:51:06.211Z,1.38
2019-02-14T01:51:40.822Z,1.42
2019-02-14T01:52:15.491Z,1.38
2019-02-14T01:52:49.830Z,1.35
2019-02-14T01:53:24.422Z,1.33
2019-02-14T01:53:58.772Z,1.28
2019-02-14T01:54:33.108Z,1.23
2019-02-14T01:55:07.742Z,1.22
2019-02-14T01:55:42.126Z,1.20
2019-02-14T01:56:16.481Z,1.23
2019-02-14T01:56:51.098Z,1.14
2019-02-14T01:57:25.688Z,1.14
2019-02-14T01:58:00.035Z,1.13
2019-02-14T01:58:34.714Z,1.10
2019-02-14T01:59:09.072Z,1.09
2019-02-14T01:59:43.472Z,1.10
2019-02-14T02:00:18.376Z,1.02
2019-02-14T02:00:52.997Z,0.97
2019-02-14T02:01:27.352Z,0.94
2019-02-14T02:02:01.678Z,0.93
2019-02-14T02:02:36.262Z,0.96
2019-02-14T02:03:10.859Z,0.95
2019-02-14T02:03:45.452Z,0.98
2019-02-14T02:04:19.810Z,1.01
2019-02-14T02:04:54.391Z,0.96
2019-02-14T02:05:28.727Z,0.99
2019-02-14T02:06:03.153Z,0.98
2019-02-14T02:06:37.480Z,0.99
2019-02-14T02:07:11.924Z,0.97
2019-02-14T02:07:46.591Z,0.93
2019-02-14T02:08:21.333Z,0.96
2019-02-14T02:08:56.034Z,0.96
2019-02-14T02:09:30.637Z,0.96
2019-02-14T02:10:05.384Z,1.00
2019-02-14T02:10:40.006Z,0.96
2019-02-14T02:11:14.360Z,1.02
2019-02-14T02:11:48.936Z,0.99
2019-02-14T02:12:23.537Z,0.95
2019-02-14T02:12:57.861Z,0.98
2019-02-14T02:13:32.813Z,0.96
2019-02-14T02:14:07.134Z,1.04
2019-02-14T02:14:42.001Z,1.02
2019-02-14T02:15:16.343Z,0.96
2019-02-14T02:15:50.661Z,1.00
2019-02-14T02:16:25.127Z,0.96
2019-02-14T02:16:59.745Z,0.97
2019-02-14T02:17:34.068Z,0.94
2019-02-14T02:18:08.640Z,0.97
2019-02-14T02:18:43.564Z,1.01
2019-02-14T02:19:18.235Z,1.00
2019-02-14T02:19:52.569Z,0.93
2019-02-14T02:20:33.275Z,0.93
2019-02-14T02:21:03.404Z,0.87
2019-02-14T02:21:37.738Z,0.92
2019-02-14T02:22:12.345Z,0.92
2019-02-14T02:22:46.647Z,1.03
2019-02-14T02:23:20.957Z,0.99
2019-02-14T02:23:55.532Z,0.94
2019-02-14T02:24:30.123Z,0.96
2019-02-14T02:25:04.826Z,1.07
2019-02-14T02:25:39.153Z,1.01
2019-02-14T02:26:13.744Z,1.00
2019-02-14T02:26:48.369Z,0.97
2019-02-14T02:27:22.950Z,0.95
2019-02-14T02:27:57.542Z,0.97
2019-02-14T02:28:31.965Z,1.00
2019-02-14T02:29:06.556Z,1.07
2019-02-14T02:29:40.921Z,1.05
2019-02-14T02:30:15.535Z,1.11
2019-02-14T02:30:49.867Z,1.06
2019-02-14T02:31:24.186Z,0.98
2019-02-14T02:31:58.834Z,0.99
2019-02-14T02:32:33.157Z,0.98
2019-02-14T02:33:07.466Z,0.99
2019-02-14T02:33:42.157Z,1.07
2019-02-14T02:34:16.836Z,1.05
2019-02-14T02:34:51.197Z,0.97
2019-02-14T02:35:25.772Z,0.95
2019-02-14T02:36:00.907Z,0.92
2019-02-14T02:36:35.188Z,0.94
2019-02-14T02:37:09.640Z,0.91
2019-02-14T02:37:44.093Z,0.92
2019-02-14T02:38:18.424Z,0.90
2019-02-14T02:38:52.757Z,0.89
2019-02-14T02:39:27.143Z,0.92
2019-02-14T02:40:01.752Z,0.94
2019-02-14T02:40:36.067Z,0.94
2019-02-14T02:41:10.978Z,0.98
2019-02-14T02:41:45.336Z,1.03
2019-02-14T02:42:19.646Z,1.07
2019-02-14T02:42:53.978Z,1.04
2019-02-14T02:43:28.611Z,1.01
2019-02-14T02:44:03.187Z,1.02
2019-02-14T02:44:37.540Z,0.99
2019-02-14T02:45:12.661Z,1.02
2019-02-14T02:45:47.299Z,1.01
2019-02-14T02:46:22.440Z,1.00
2019-02-14T02:46:56.772Z,0.94
2019-02-14T02:47:31.260Z,0.97
2019-02-14T02:48:05.581Z,0.98
2019-02-14T02:48:40.141Z,0.93
2019-02-14T02:49:14.784Z,0.95
2019-02-14T02:49:49.399Z,0.93
2019-02-14T02:50:24.097Z,0.98
2019-02-14T02:50:58.715Z,0.98
2019-02-14T02:51:33.171Z,0.97
2019-02-14T02:52:07.594Z,0.97
2019-02-14T02:52:41.945Z,0.97
2019-02-14T02:53:16.537Z,0.98
2019-02-14T02:53:50.869Z,0.98
2019-02-14T02:54:25.214Z,0.97
2019-02-14T02:54:59.824Z,0.98
2019-02-14T02:55:34.192Z,0.99
2019-02-14T02:56:08.522Z,1.00
2019-02-14T02:56:43.117Z,1.00
2019-02-14T02:57:17.741Z,1.01
2019-02-14T02:57:52.092Z,1.02
2019-02-14T02:58:26.457Z,1.02
2019-02-14T02:59:01.016Z,1.03
2019-02-14T02:59:35.356Z,1.05
2019-02-14T03:00:13.137Z,1.02
2019-02-14T03:00:47.479Z,1.02
2019-02-14T03:01:21.776Z,1.02
2019-02-14T03:01:56.102Z,0.95
2019-02-14T03:02:30.456Z,0.96
2019-02-14T03:03:04.790Z,1.00
2019-02-14T03:03:39.388Z,0.98
2019-02-14T03:04:14.009Z,1.03
2019-02-14T03:04:48.340Z,1.09
2019-02-14T03:05:22.682Z,1.07
2019-02-14T03:05:57.073Z,1.07
2019-02-14T03:06:31.400Z,1.01
2019-02-14T03:07:05.840Z,1.01
2019-02-14T03:07:40.727Z,1.01
2019-02-14T03:08:15.314Z,1.00
2019-02-14T03:08:49.640Z,1.04
2019-02-14T03:09:24.056Z,1.04
2019-02-14T03:09:58.414Z,1.04
2019-02-14T03:10:32.723Z,1.04
2019-02-14T03:11:07.340Z,1.02
2019-02-14T03:11:41.648Z,0.99
2019-02-14T03:12:16.226Z,1.04
2019-02-14T03:12:50.548Z,1.03
2019-02-14T03:13:24.882Z,1.04
2019-02-14T03:13:59.201Z,1.04
2019-02-14T03:14:33.826Z,1.04
2019-02-14T03:15:09.083Z,1.04
2019-02-14T03:15:43.511Z,1.05
2019-02-14T03:16:17.884Z,1.11
2019-02-14T03:16:52.207Z,1.07
2019-02-14T03:17:26.781Z,1.07
2019-02-14T03:18:01.097Z,1.04
2019-02-14T03:18:35.405Z,1.03
2019-02-14T03:19:09.710Z,0.98
2019-02-14T03:19:44.053Z,1.06
2019-02-14T03:20:18.952Z,1.10
2019-02-14T03:20:53.530Z,1.06
2019-02-14T03:21:27.848Z,1.05
2019-02-14T03:22:02.155Z,1.03
2019-02-14T03:22:36.456Z,1.01
2019-02-14T03:23:11.037Z,0.96
2019-02-14T03:23:45.366Z,0.94
2019-02-14T03:24:19.956Z,0.94
2019-02-14T03:24:54.288Z,0.93
2019-02-14T03:25:28.914Z,0.91
2019-02-14T03:26:03.483Z,0.90
2019-02-14T03:26:38.096Z,0.89
2019-02-14T03:27:12.709Z,0.91
2019-02-14T03:27:47.050Z,0.89
2019-02-14T03:28:21.645Z,0.90
2019-02-14T03:28:55.969Z,0.87
2019-02-14T03:29:30.239Z,0.88
2019-02-14T03:30:05.006Z,0.84
2019-02-14T03:30:39.327Z,0.87
2019-02-14T03:31:13.664Z,0.85
2019-02-14T03:31:47.998Z,0.85
2019-02-14T03:32:22.322Z,0.85
2019-02-14T03:32:56.650Z,0.80
2019-02-14T03:33:31.238Z,0.81
2019-02-14T03:34:05.859Z,0.82
2019-02-14T03:34:40.204Z,0.78
2019-02-14T03:35:14.570Z,0.79
2019-02-14T03:35:49.225Z,0.78
2019-02-14T03:36:23.831Z,0.77
2019-02-14T03:36:58.446Z,0.78
2019-02-14T03:37:33.407Z,0.75
2019-02-14T03:38:08.350Z,0.79
2019-02-14T03:38:42.786Z,0.77
2019-02-14T03:39:17.400Z,0.75
2019-02-14T03:39:51.737Z,0.75
2019-02-14T03:40:26.608Z,0.74
2019-02-14T03:41:01.095Z,0.74
2019-02-14T03:41:35.544Z,0.74
2019-02-14T03:42:10.154Z,0.79
2019-02-14T03:42:44.485Z,0.77
2019-02-14T03:43:18.843Z,0.78
2019-02-14T03:43:53.418Z,0.78
2019-02-14T03:44:27.744Z,0.80
2019-02-14T03:45:02.087Z,0.82
2019-02-14T03:45:36.698Z,0.82
2019-02-14T03:46:11.041Z,0.81
2019-02-14T03:46:45.646Z,0.77
2019-02-14T03:47:20.007Z,0.82
2019-02-14T03:47:54.444Z,0.83
2019-02-14T03:48:28.775Z,0.88
2019-02-14T03:49:03.113Z,0.90
2019-02-14T03:49:37.439Z,0.91
2019-02-14T03:50:11.785Z,0.93
2019-02-14T03:50:46.436Z,0.92
2019-02-14T03:51:20.775Z,0.93
2019-02-14T03:51:55.113Z,0.91
2019-02-14T03:52:29.451Z,0.87
2019-02-14T03:53:03.773Z,0.85
2019-02-14T03:53:38.420Z,0.85
2019-02-14T03:54:12.984Z,0.82
2019-02-14T03:54:47.564Z,0.80
2019-02-14T03:55:22.497Z,0.80
2019-02-14T03:55:56.836Z,0.80
2019-02-14T03:56:31.503Z,0.81
2019-02-14T03:57:06.424Z,0.84
2019-02-14T03:57:40.774Z,0.83
2019-02-14T03:58:15.235Z,0.83
2019-02-14T03:58:49.671Z,0.82
2019-02-14T03:59:23.995Z,0.83
2019-02-14T03:59:58.337Z,0.81
2019-02-14T04:00:33.013Z,0.81
2019-02-14T04:01:07.353Z,0.84
2019-02-14T04:01:41.729Z,0.84
2019-02-14T04:02:16.451Z,0.86
2019-02-14T04:02:51.035Z,0.85
2019-02-14T04:03:25.367Z,0.84
2019-02-14T04:03:59.693Z,0.83
2019-02-14T04:04:34.283Z,0.82
2019-02-14T04:05:08.788Z,0.89
2019-02-14T04:05:46.191Z,0.85
2019-02-14T04:06:27.137Z,0.85
2019-02-14T04:06:56.813Z,0.84
2019-02-14T04:07:31.166Z,0.89
2019-02-14T04:08:05.485Z,0.85
2019-02-14T04:08:40.073Z,0.78
2019-02-14T04:09:14.683Z,0.80
2019-02-14T04:09:49.042Z,0.76
2019-02-14T04:10:23.637Z,0.74
2019-02-14T04:10:57.992Z,0.70
2019-02-14T04:11:32.331Z,0.75
2019-02-14T04:12:06.657Z,0.75
2019-02-14T04:12:41.125Z,0.78
2019-02-14T04:13:15.762Z,0.77
2019-02-14T04:13:50.366Z,0.80
2019-02-14T04:14:24.978Z,0.74
2019-02-14T04:14:59.561Z,0.75
2019-02-14T04:15:33.877Z,0.74
2019-02-14T04:16:08.498Z,0.72
2019-02-14T04:16:43.405Z,0.75
2019-02-14T04:17:17.739Z,0.70
2019-02-14T04:17:52.305Z,0.72
2019-02-14T04:18:26.682Z,0.76
2019-02-14T04:19:01.058Z,0.78
2019-02-14T04:19:35.673Z,0.78
2019-02-14T04:20:10.100Z,0.79
2019-02-14T04:20:44.432Z,0.84
2019-02-14T04:21:19.019Z,0.80
2019-02-14T04:21:53.344Z,0.78
2019-02-14T04:22:27.673Z,0.84
2019-02-14T04:23:01.997Z,0.84
2019-02-14T04:23:36.348Z,0.82
2019-02-14T04:24:10.929Z,0.77
2019-02-14T04:24:45.996Z,0.77
2019-02-14T04:25:20.644Z,0.77
2019-02-14T04:25:55.243Z,0.72
2019-02-14T04:26:29.563Z,0.74
2019-02-14T04:27:03.950Z,0.72
2019-02-14T04:27:38.578Z,0.68
2019-02-14T04:28:12.908Z,0.71
2019-02-14T04:28:47.249Z,0.74
2019-02-14T04:29:21.828Z,0.74
2019-02-14T04:29:56.428Z,0.69
2019-02-14T04:30:30.743Z,0.70
2019-02-14T04:31:05.104Z,0.68
2019-02-14T04:31:39.431Z,0.69
2019-02-14T04:32:14.023Z,0.69
2019-02-14T04:32:48.620Z,0.66
2019-02-14T04:33:22.949Z,0.67
2019-02-14T04:33:57.275Z,0.68
2019-02-14T04:34:31.893Z,0.66
2019-02-14T04:35:06.360Z,0.66
2019-02-14T04:35:40.756Z,0.65
2019-02-14T04:36:15.162Z,0.64
2019-02-14T04:36:49.466Z,0.60
2019-02-14T04:37:24.071Z,0.60
2019-02-14T04:37:58.405Z,0.54
2019-02-14T04:38:32.736Z,0.62
2019-02-14T04:39:08.166Z,0.65
2019-02-14T04:39:42.762Z,0.67
2019-02-14T04:40:17.350Z,0.66
2019-02-14T04:40:51.971Z,0.68
2019-02-14T04:41:26.887Z,0.67
2019-02-14T04:42:01.462Z,0.69
2019-02-14T04:42:35.820Z,0.69
2019-02-14T04:43:10.150Z,0.67
2019-02-14T04:43:44.778Z,0.65
2019-02-14T04:44:19.778Z,0.63
2019-02-14T04:44:54.371Z,0.66
2019-02-14T04:45:28.702Z,0.63
2019-02-14T04:46:03.328Z,0.67
2019-02-14T04:46:37.740Z,0.64
2019-02-14T04:47:12.317Z,0.68
2019-02-14T04:47:46.647Z,0.68
2019-02-14T04:48:21.254Z,0.75
2019-02-14T04:48:55.835Z,0.75
2019-02-14T04:49:30.419Z,0.77
2019-02-14T04:50:05.391Z,0.75
2019-02-14T04:50:39.740Z,0.70
2019-02-14T04:51:14.100Z,0.70
2019-02-14T04:51:48.432Z,0.69
2019-02-14T04:52:22.762Z,0.71
2019-02-14T04:52:57.342Z,0.68
2019-02-14T04:53:31.931Z,0.67
2019-02-14T04:54:06.510Z,0.75
2019-02-14T04:54:41.172Z,0.77
2019-02-14T04:55:15.520Z,0.77
2019-02-14T04:55:49.853Z,0.76
2019-02-14T04:56:24.529Z,0.80
2019-02-14T04:56:58.864Z,0.81
2019-02-14T04:57:33.729Z,0.83
2019-02-14T04:58:08.143Z,0.86
2019-02-14T04:58:42.780Z,0.83
2019-02-14T04:59:17.940Z,0.88
2019-02-14T04:59:52.270Z,0.88
2019-02-14T05:00:26.599Z,0.84
2019-02-14T05:01:00.931Z,0.83
2019-02-14T05:01:35.311Z,0.85
2019-02-14T05:02:09.901Z,0.84
2019-02-14T05:02:44.526Z,0.80
2019-02-14T05:03:19.172Z,0.77
2019-02-14T05:03:53.591Z,0.81
2019-02-14T05:04:27.919Z,0.77
2019-02-14T05:05:02.261Z,0.76
2019-02-14T05:05:36.594Z,0.78
2019-02-14T05:06:10.952Z,0.77
2019-02-14T05:06:45.332Z,0.80
2019-02-14T05:07:19.681Z,0.81
2019-02-14T05:07:54.565Z,0.77
2019-02-14T05:08:29.209Z,0.77
2019-02-14T05:09:04.469Z,0.69
2019-02-14T05:09:39.113Z,0.69
2019-02-14T05:10:14.099Z,0.75
2019-02-14T05:10:48.453Z,0.72
2019-02-14T05:11:23.136Z,0.70
2019-02-14T05:11:57.778Z,0.69
2019-02-14T05:12:32.438Z,0.65
2019-02-14T05:13:06.769Z,0.65
2019-02-14T05:13:41.642Z,0.64
2019-02-14T05:14:15.996Z,0.66
2019-02-14T05:14:50.326Z,0.63
2019-02-14T05:15:24.658Z,0.63
2019-02-14T05:15:58.989Z,0.63
2019-02-14T05:16:33.367Z,0.61
2019-02-14T05:17:08.270Z,0.58
2019-02-14T05:17:42.925Z,0.57
2019-02-14T05:18:17.821Z,0.61
2019-02-14T05:18:52.157Z,0.58
2019-02-14T05:19:26.487Z,0.60
2019-02-14T05:20:01.347Z,0.61
2019-02-14T05:20:35.682Z,0.65
2019-02-14T05:21:10.304Z,0.64
2019-02-14T05:21:44.915Z,0.63
2019-02-14T05:22:19.805Z,0.66
2019-02-14T05:22:54.141Z,0.65
2019-02-14T05:23:28.774Z,0.61
2019-02-14T05:24:03.105Z,0.59
2019-02-14T05:24:37.443Z,0.59
2019-02-14T05:25:12.085Z,0.63
2019-02-14T05:25:46.759Z,0.66
2019-02-14T05:26:22.659Z,0.71
2019-02-14T05:26:57.282Z,0.68
2019-02-14T05:27:31.626Z,0.70
2019-02-14T05:28:05.964Z,0.70
2019-02-14T05:28:40.305Z,0.73
2019-02-14T05:29:14.634Z,0.69
2019-02-14T05:29:50.605Z,0.67
2019-02-14T05:30:25.199Z,0.64
2019-02-14T05:30:59.779Z,0.60
2019-02-14T05:31:34.109Z,0.56
2019-02-14T05:32:08.731Z,0.57
2019-02-14T05:32:43.082Z,0.55
2019-02-14T05:33:17.437Z,0.55
2019-02-14T05:33:51.767Z,0.52
2019-02-14T05:34:26.151Z,0.49
2019-02-14T05:35:00.545Z,0.50
2019-02-14T05:35:34.815Z,0.49
2019-02-14T05:36:09.401Z,0.52
2019-02-14T05:36:43.768Z,0.51
2019-02-14T05:37:18.147Z,0.44
2019-02-14T05:37:52.509Z,0.45
2019-02-14T05:38:26.841Z,0.43
2019-02-14T05:39:01.171Z,0.44
2019-02-14T05:39:35.587Z,0.49
2019-02-14T05:40:10.115Z,0.48
2019-02-14T05:40:44.814Z,0.53
2019-02-14T05:41:19.493Z,0.55
2019-02-14T05:41:54.430Z,0.50
2019-02-14T05:42:29.026Z,0.54
2019-02-14T05:43:03.371Z,0.54
2019-02-14T05:43:37.701Z,0.60
2019-02-14T05:44:12.313Z,0.61
2019-02-14T05:44:46.662Z,0.57
2019-02-14T05:45:20.985Z,0.59
2019-02-14T05:45:55.353Z,0.59
2019-02-14T05:46:29.693Z,0.58
2019-02-14T05:47:04.027Z,0.57
2019-02-14T05:47:38.649Z,0.61
2019-02-14T05:48:13.010Z,0.58
2019-02-14T05:48:47.631Z,0.57
2019-02-14T05:49:22.225Z,0.56
2019-02-14T05:49:56.808Z,0.53
2019-02-14T05:50:31.398Z,0.55
2019-02-14T05:51:05.719Z,0.59
2019-02-14T05:51:40.320Z,0.57
2019-02-14T05:52:14.700Z,0.52
2019-02-14T05:52:49.025Z,0.61
2019-02-14T05:53:23.611Z,0.62
2019-02-14T05:53:57.948Z,0.64
2019-02-14T05:54:32.282Z,0.64
2019-02-14T05:55:07.892Z,0.65
2019-02-14T05:55:42.418Z,0.64
2019-02-14T05:56:16.762Z,0.66
2019-02-14T05:56:51.095Z,0.60
2019-02-14T05:57:27.289Z,0.63
2019-02-14T05:58:01.768Z,0.60
2019-02-14T05:58:36.109Z,0.57
2019-02-14T05:59:10.470Z,0.54
2019-02-14T05:59:44.812Z,0.56
2019-02-14T06:00:19.752Z,0.55
2019-02-14T06:00:54.911Z,0.51
2019-02-14T06:01:29.251Z,0.57
2019-02-14T06:02:03.679Z,0.56
2019-02-14T06:02:38.217Z,0.61
2019-02-14T06:03:12.840Z,0.58
2019-02-14T06:03:47.246Z,0.62
2019-02-14T06:04:21.870Z,0.62
2019-02-14T06:04:56.450Z,0.64
2019-02-14T06:05:30.824Z,0.66
2019-02-14T06:06:05.192Z,0.63
2019-02-14T06:06:39.801Z,0.63
2019-02-14T06:07:14.179Z,0.61
2019-02-14T06:07:48.570Z,0.62
2019-02-14T06:08:23.204Z,0.62
2019-02-14T06:08:57.545Z,0.61
2019-02-14T06:09:31.880Z,0.59
2019-02-14T06:10:07.037Z,0.57
2019-02-14T06:10:41.621Z,0.53
2019-02-14T06:11:16.069Z,0.51
2019-02-14T06:11:50.703Z,0.54
2019-02-14T06:12:25.322Z,0.53
2019-02-14T06:12:59.946Z,0.50
2019-02-14T06:13:34.293Z,0.51
2019-02-14T06:14:08.909Z,0.48
2019-02-14T06:14:43.313Z,0.57
2019-02-14T06:15:17.943Z,0.53
2019-02-14T06:15:52.510Z,0.45
2019-02-14T06:16:27.165Z,0.46
2019-02-14T06:17:01.524Z,0.50
2019-02-14T06:17:36.196Z,0.53
2019-02-14T06:18:10.549Z,0.52
2019-02-14T06:18:45.224Z,0.51
2019-02-14T06:19:19.936Z,0.52
2019-02-14T06:19:54.277Z,0.48
2019-02-14T06:20:28.898Z,0.47
2019-02-14T06:21:03.239Z,0.41
2019-02-14T06:21:37.850Z,0.44
2019-02-14T06:22:12.467Z,0.42
2019-02-14T06:22:47.150Z,0.42
2019-02-14T06:23:21.490Z,0.44
2019-02-14T06:23:56.123Z,0.41
2019-02-14T06:24:30.738Z,0.39
2019-02-14T06:25:05.295Z,0.38
2019-02-14T06:25:39.871Z,0.38
2019-02-14T06:26:14.272Z,0.46
2019-02-14T06:26:48.971Z,0.45
2019-02-14T06:27:23.366Z,0.44
2019-02-14T06:27:57.714Z,0.44
2019-02-14T06:28:32.047Z,0.42
2019-02-14T06:29:06.379Z,0.42
2019-02-14T06:29:41.031Z,0.47
2019-02-14T06:30:15.616Z,0.47
2019-02-14T06:30:50.113Z,0.44
2019-02-14T06:31:24.756Z,0.46
2019-02-14T06:31:59.609Z,0.50
2019-02-14T06:32:33.965Z,0.49
2019-02-14T06:33:08.387Z,0.50
2019-02-14T06:33:44.343Z,0.47
2019-02-14T06:34:19.087Z,0.51
2019-02-14T06:34:53.421Z,0.52
2019-02-14T06:35:28.032Z,0.51
2019-02-14T06:36:02.462Z,0.50
2019-02-14T06:36:37.040Z,0.50
2019-02-14T06:37:11.374Z,0.50
2019-02-14T06:37:46.243Z,0.47
2019-02-14T06:38:20.976Z,0.50
2019-02-14T06:38:55.302Z,0.49
2019-02-14T06:39:29.702Z,0.43
2019-02-14T06:40:04.461Z,0.44
2019-02-14T06:40:39.080Z,0.46
2019-02-14T06:41:13.459Z,0.54
2019-02-14T06:41:47.817Z,0.55
2019-02-14T06:42:22.444Z,0.55
2019-02-14T06:42:56.843Z,0.58
2019-02-14T06:43:31.178Z,0.58
2019-02-14T06:44:05.787Z,0.57
2019-02-14T06:44:40.688Z,0.60
2019-02-14T06:45:15.363Z,0.61
2019-02-14T06:45:50.020Z,0.59
2019-02-14T06:46:24.392Z,0.65
2019-02-14T06:46:58.994Z,0.69
2019-02-14T06:47:33.335Z,0.65
2019-02-14T06:48:07.934Z,0.69
2019-02-14T06:48:42.391Z,0.71
2019-02-14T06:49:16.765Z,0.69
2019-02-14T06:49:51.157Z,0.68
2019-02-14T06:50:25.494Z,0.63
2019-02-14T06:50:59.832Z,0.68
2019-02-14T06:51:34.438Z,0.66
2019-02-14T06:52:08.788Z,0.65
2019-02-14T06:52:43.138Z,0.67
2019-02-14T06:53:17.574Z,0.65
2019-02-14T06:53:51.908Z,0.59
2019-02-14T06:54:26.225Z,0.56
2019-02-14T06:55:00.562Z,0.59
2019-02-14T06:55:34.911Z,0.55
2019-02-14T06:56:09.494Z,0.55
2019-02-14T06:56:44.014Z,0.52
2019-02-14T06:57:18.587Z,0.50
2019-02-14T06:57:53.464Z,0.53
2019-02-14T06:58:28.092Z,0.57
2019-02-14T06:59:02.457Z,0.54
2019-02-14T06:59:36.793Z,0.55
2019-02-14T07:00:13.343Z,0.51
2019-02-14T07:00:47.812Z,0.49
2019-02-14T07:01:22.405Z,0.44
2019-02-14T07:01:57.010Z,0.47
2019-02-14T07:02:31.647Z,0.50
2019-02-14T07:03:06.019Z,0.53
2019-02-14T07:03:40.391Z,0.51
2019-02-14T07:04:14.908Z,0.53
2019-02-14T07:04:49.546Z,0.56
2019-02-14T07:05:23.920Z,0.58
2019-02-14T07:05:58.642Z,0.62
2019-02-14T07:06:33.322Z,0.61
2019-02-14T07:07:07.955Z,0.65
2019-02-14T07:07:42.319Z,0.64
2019-02-14T07:08:16.852Z,0.65
2019-02-14T07:08:51.602Z,0.66
2019-02-14T07:09:25.966Z,0.68
2019-02-14T07:10:00.324Z,0.65
2019-02-14T07:10:34.919Z,0.66
2019-02-14T07:11:09.520Z,0.65
2019-02-14T07:11:43.931Z,0.64
2019-02-14T07:12:18.594Z,0.58
2019-02-14T07:12:53.050Z,0.54
2019-02-14T07:13:27.749Z,0.56
2019-02-14T07:14:02.539Z,0.53
2019-02-14T07:14:37.895Z,0.56
2019-02-14T07:15:12.467Z,0.59
2019-02-14T07:15:47.153Z,0.61
2019-02-14T07:16:21.847Z,0.61
2019-02-14T07:16:56.473Z,0.66
2019-02-14T07:17:31.118Z,0.64
2019-02-14T07:18:05.498Z,0.63
2019-02-14T07:18:39.842Z,0.62
2019-02-14T07:19:14.233Z,0.58
2019-02-14T07:19:48.932Z,0.55
2019-02-14T07:20:23.310Z,0.54
2019-02-14T07:20:57.807Z,0.54
2019-02-14T07:21:32.428Z,0.52
2019-02-14T07:22:06.768Z,0.55
2019-02-14T07:22:41.161Z,0.56
2019-02-14T07:23:15.834Z,0.59
2019-02-14T07:23:50.234Z,0.57
2019-02-14T07:24:24.587Z,0.52
2019-02-14T07:24:59.231Z,0.53
2019-02-14T07:25:33.558Z,0.54
2019-02-14T07:26:08.138Z,0.55
2019-02-14T07:26:42.776Z,0.56
2019-02-14T07:27:17.474Z,0.56
2019-02-14T07:27:52.786Z,0.54
2019-02-14T07:28:27.142Z,0.51
2019-02-14T07:29:01.505Z,0.49
2019-02-14T07:29:36.117Z,0.49
2019-02-14T07:30:13.640Z,0.50
2019-02-14T07:30:48.053Z,0.60
2019-02-14T07:31:22.653Z,0.57
2019-02-14T07:31:56.978Z,0.53
2019-02-14T07:32:31.321Z,0.45
2019-02-14T07:33:05.682Z,0.46
2019-02-14T07:33:40.646Z,0.40
2019-02-14T07:34:14.995Z,0.35
2019-02-14T07:34:49.421Z,0.37
2019-02-14T07:35:24.004Z,0.36
2019-02-14T07:35:58.397Z,0.39
2019-02-14T07:36:32.751Z,0.41
2019-02-14T07:37:07.091Z,0.36
2019-02-14T07:37:41.737Z,0.32
2019-02-14T07:38:16.260Z,0.31
2019-02-14T07:38:50.889Z,0.30
2019-02-14T07:39:25.520Z,0.31